Terminal Aerodrome Forecast
Issued by NWS Paducah, KY

Home | Current Version | Previous Version | Text Only | Print | Product List | Glossary On
Versions: 1 2 3 4 5 6 7 8 9 10 11 12 13 14 15 16 17 18 19
000
FTUS43 KPAH 241604 AAB
TAFPAH
TAF AMD
KPAH 241604Z 2416/2512 18010G20KT P6SM SCT080
     FM242300 16008G18KT P6SM BKN040 PROB30 2501/2505 6SM TSRA
      BKN025CB
     FM250500 17013KT 5SM TSRA BR BKN025CB=

USA.gov is the U.S. government's official web portal to all federal, state and local government web resources and services.